Time;durP1;ratioP1;P1;durP2;ratioP2;P2;SDS_P1;SDS_P2;PMS_P1;PMS_P2;Temp;Humidity;BMP_temperature;BMP_pressure;BME280_temperature;BME280_humidity;BME280_pressure;Samples;Min_cycle;Max_cycle;Signal;HPM_P1;HPM_P2
2022/04/30 00:00:29;;;;;;;24.50;10.60;;;6.00;99.90;;;;;;4877600;29;20056;-81
2022/04/30 00:02:57;;;;;;;17.48;9.50;;;6.00;99.90;;;;;;4894959;29;20048;-81
2022/04/30 00:05:24;;;;;;;20.40;10.23;;;6.00;99.90;;;;;;4877603;29;20056;-81
2022/04/30 00:07:50;;;;;;;19.85;10.70;;;6.00;99.90;;;;;;4862802;29;20049;-80
2022/04/30 00:10:16;;;;;;;17.83;10.25;;;6.00;99.90;;;;;;4894872;29;20059;-81
2022/04/30 00:12:41;;;;;;;17.55;10.10;;;6.00;99.90;;;;;;4878243;29;20109;-81
2022/04/30 00:15:09;;;;;;;21.60;10.90;;;6.10;99.90;;;;;;4877861;29;20055;-81
2022/04/30 00:17:34;;;;;;;23.42;10.35;;;6.00;99.90;;;;;;4877541;29;20464;-81
2022/04/30 00:20:00;;;;;;;17.45;9.48;;;6.00;99.90;;;;;;4877197;29;20081;-81
2022/04/30 00:22:26;;;;;;;21.50;8.75;;;6.10;99.90;;;;;;4862237;29;20048;-81
2022/04/30 00:24:51;;;;;;;18.52;9.65;;;6.00;99.90;;;;;;4876738;29;20192;-81
2022/04/30 00:27:20;;;;;;;22.02;9.60;;;6.00;99.90;;;;;;4894642;29;20051;-81
2022/04/30 00:29:46;;;;;;;17.83;10.27;;;6.00;99.90;;;;;;4878013;29;20663;-81
2022/04/30 00:32:12;;;;;;;18.75;8.13;;;6.00;99.90;;;;;;4861034;29;20101;-81
2022/04/30 00:34:38;;;;;;;18.50;9.18;;;6.00;99.90;;;;;;4893579;29;20127;-81
2022/04/30 00:37:04;;;;;;;20.60;9.05;;;6.00;99.90;;;;;;4877604;29;20179;-80
2022/04/30 00:39:31;;;;;;;16.75;9.05;;;5.90;99.90;;;;;;4877042;29;20051;-81
2022/04/30 00:41:57;;;;;;;14.50;8.30;;;6.00;99.90;;;;;;4877141;29;20055;-80
2022/04/30 00:44:22;;;;;;;20.48;8.93;;;6.00;99.90;;;;;;4862462;29;20052;-80
2022/04/30 00:46:49;;;;;;;15.40;8.95;;;5.90;99.90;;;;;;4875873;29;20075;-80
2022/04/30 00:49:15;;;;;;;17.73;7.53;;;6.00;99.90;;;;;;4885780;29;20040;-80
2022/04/30 00:51:43;;;;;;;18.48;8.73;;;6.00;99.90;;;;;;4875508;29;20116;-81
2022/04/30 00:54:11;;;;;;;15.50;8.63;;;6.40;99.90;;;;;;4857990;29;20421;-82
2022/04/30 00:56:47;;;;;;;15.63;8.90;;;5.90;99.90;;;;;;4858558;29;20052;-83
2022/04/30 00:59:21;;;;;;;16.92;7.82;;;5.90;99.90;;;;;;4858791;29;20398;-82
2022/04/30 01:01:48;;;;;;;16.85;7.80;;;5.90;99.90;;;;;;4857109;29;20192;-83
2022/04/30 01:04:16;;;;;;;16.80;8.05;;;5.90;99.90;;;;;;4875246;29;20056;-82
2022/04/30 01:06:50;;;;;;;20.55;7.90;;;5.80;99.90;;;;;;4858711;29;20057;-83
2022/04/30 01:09:20;;;;;;;15.23;7.63;;;5.80;99.90;;;;;;4858004;29;20417;-82
2022/04/30 01:11:48;;;;;;;22.63;7.82;;;5.80;99.90;;;;;;4874843;29;20528;-83
2022/04/30 01:14:15;;;;;;;22.83;7.63;;;5.70;99.90;;;;;;4856799;29;20061;-83
2022/04/30 01:16:43;;;;;;;17.42;7.65;;;5.70;99.90;;;;;;4858373;29;20057;-82
2022/04/30 01:19:14;;;;;;;15.57;7.18;;;5.70;99.90;;;;;;4874635;29;20068;-82
2022/04/30 01:21:42;;;;;;;15.63;7.65;;;5.80;99.90;;;;;;4849455;29;20487;-82
2022/04/30 01:24:09;;;;;;;18.40;6.28;;;5.80;99.90;;;;;;4893060;29;20040;-82
2022/04/30 01:26:36;;;;;;;19.00;7.65;;;5.80;99.90;;;;;;4877146;29;20055;-82
2022/04/30 01:29:02;;;;;;;11.50;6.38;;;5.80;99.90;;;;;;4875789;29;20055;-82
2022/04/30 01:39:40;;;;;;;22.20;7.65;;;5.80;99.90;;;;;;4876828;29;20112;-82
2022/04/30 01:42:11;;;;;;;15.50;7.35;;;5.80;99.90;;;;;;4875518;29;20040;-82
2022/04/30 01:44:46;;;;;;;17.70;7.25;;;5.90;99.90;;;;;;4893774;29;20052;-82
2022/04/30 01:47:14;;;;;;;14.57;6.70;;;5.80;99.90;;;;;;4860754;29;20135;-83
2022/04/30 01:49:40;;;;;;;15.35;6.70;;;5.90;99.90;;;;;;4876365;29;20568;-82
2022/04/30 01:52:07;;;;;;;17.45;8.02;;;5.90;99.90;;;;;;4893237;29;20140;-82
2022/04/30 01:54:33;;;;;;;21.75;7.85;;;5.90;99.90;;;;;;4893900;29;20108;-82
2022/04/30 01:56:59;;;;;;;13.73;7.10;;;6.00;99.90;;;;;;4892115;29;20108;-82
2022/04/30 01:59:24;;;;;;;16.05;7.63;;;5.80;99.90;;;;;;4876830;29;20048;-82
2022/04/30 02:01:51;;;;;;;14.88;8.13;;;5.80;99.90;;;;;;4875709;29;20135;-82
2022/04/30 02:04:17;;;;;;;13.10;7.20;;;5.80;99.90;;;;;;4876662;29;20071;-83
2022/04/30 02:06:44;;;;;;;11.25;7.57;;;5.80;99.90;;;;;;4877046;29;20056;-82
2022/04/30 02:09:10;;;;;;;14.95;7.50;;;5.80;99.90;;;;;;4876604;29;20508;-82
2022/04/30 02:11:36;;;;;;;16.48;7.10;;;5.70;99.90;;;;;;4875755;29;20061;-82
2022/04/30 02:14:03;;;;;;;16.60;7.57;;;5.70;99.90;;;;;;4875870;29;20136;-82
2022/04/30 02:16:31;;;;;;;12.40;7.18;;;5.80;99.90;;;;;;4876180;29;20074;-82
2022/04/30 02:19:01;;;;;;;11.57;7.25;;;5.70;99.90;;;;;;4892328;29;20085;-82
2022/04/30 02:21:30;;;;;;;12.13;6.90;;;5.70;99.90;;;;;;4876814;29;20052;-83
2022/04/30 02:23:58;;;;;;;18.83;7.55;;;5.70;99.90;;;;;;4875976;29;20175;-82
2022/04/30 02:26:27;;;;;;;16.27;6.97;;;5.70;99.90;;;;;;4876333;29;20057;-81
2022/04/30 02:28:56;;;;;;;16.88;7.25;;;5.70;99.90;;;;;;4876209;29;20049;-82
2022/04/30 02:31:25;;;;;;;11.23;6.88;;;5.70;99.90;;;;;;4875123;29;20064;-82
2022/04/30 02:33:54;;;;;;;15.43;6.72;;;5.70;99.90;;;;;;4892357;29;20382;-82
2022/04/30 02:36:27;;;;;;;15.48;6.53;;;5.70;99.90;;;;;;4861318;29;20478;-82
2022/04/30 02:38:54;;;;;;;14.30;6.85;;;5.80;99.90;;;;;;4891556;29;20049;-83
2022/04/30 02:41:22;;;;;;;10.05;6.78;;;5.70;99.90;;;;;;4893088;29;20056;-82
2022/04/30 02:43:51;;;;;;;14.13;6.95;;;5.80;99.90;;;;;;4892499;29;20045;-82
2022/04/30 02:46:18;;;;;;;11.80;5.93;;;5.80;99.90;;;;;;4874838;29;20056;-82
2022/04/30 02:48:44;;;;;;;13.10;7.35;;;5.80;99.90;;;;;;4890102;29;20045;-82
2022/04/30 02:51:10;;;;;;;14.70;6.35;;;5.80;99.90;;;;;;4861056;29;20056;-82
2022/04/30 02:53:37;;;;;;;12.70;7.00;;;5.80;99.90;;;;;;4860389;29;20404;-82
2022/04/30 02:56:04;;;;;;;11.55;6.63;;;5.80;99.90;;;;;;4860379;29;20109;-82
2022/04/30 03:01:15;;;;;;;11.52;6.65;;;5.80;99.90;;;;;;4859393;29;20154;-82
2022/04/30 03:03:41;;;;;;;14.82;7.00;;;5.80;99.90;;;;;;4860849;29;20643;-82
2022/04/30 03:06:07;;;;;;;12.90;6.20;;;5.80;99.90;;;;;;4844966;29;20069;-82
2022/04/30 03:08:33;;;;;;;12.05;5.85;;;5.80;99.90;;;;;;4876907;29;20048;-82
2022/04/30 03:11:01;;;;;;;16.23;6.93;;;5.80;99.90;;;;;;4860276;29;20057;-83
2022/04/30 03:13:27;;;;;;;12.23;6.45;;;5.80;99.90;;;;;;4860736;29;20056;-83
2022/04/30 03:15:54;;;;;;;14.05;6.85;;;5.80;99.90;;;;;;4859172;29;20729;-83
2022/04/30 03:23:51;;;;;;;15.45;7.20;;;5.60;99.90;;;;;;4859717;29;20439;-82
2022/04/30 03:26:19;;;;;;;15.50;7.03;;;5.70;99.90;;;;;;4860627;29;20057;-83
2022/04/30 03:28:46;;;;;;;14.40;6.30;;;5.60;99.90;;;;;;4858878;29;20553;-82
2022/04/30 03:31:15;;;;;;;9.52;6.13;;;5.50;99.90;;;;;;4859923;29;20057;-83
2022/04/30 03:33:43;;;;;;;9.90;6.47;;;5.50;99.90;;;;;;4859998;29;20068;-83
2022/04/30 03:36:11;;;;;;;11.90;5.82;;;5.40;99.90;;;;;;4844114;29;20055;-83
2022/04/30 03:38:37;;;;;;;10.95;6.03;;;5.40;99.90;;;;;;4877104;29;20498;-82
2022/04/30 03:41:05;;;;;;;12.15;6.10;;;5.30;99.90;;;;;;4859815;29;20096;-83
2022/04/30 03:43:31;;;;;;;11.43;6.93;;;5.30;99.90;;;;;;4859763;29;20413;-83
2022/04/30 03:45:57;;;;;;;14.50;6.97;;;5.30;99.90;;;;;;4875685;29;20056;-83
2022/04/30 03:48:23;;;;;;;9.32;6.00;;;5.30;99.90;;;;;;4860388;29;20053;-82
2022/04/30 03:50:48;;;;;;;15.57;7.15;;;5.20;99.90;;;;;;4843267;29;20064;-83
2022/04/30 03:53:14;;;;;;;13.00;6.78;;;5.20;99.90;;;;;;4876931;29;20052;-83
2022/04/30 03:55:40;;;;;;;21.63;7.25;;;5.20;99.90;;;;;;4876958;29;20417;-83
2022/04/30 03:58:05;;;;;;;18.08;7.40;;;5.10;99.90;;;;;;4858589;29;20260;-82
2022/04/30 04:00:31;;;;;;;12.52;7.43;;;5.10;99.90;;;;;;4858584;29;20065;-82
2022/04/30 04:02:59;;;;;;;10.90;6.10;;;5.10;99.90;;;;;;4875671;29;20049;-82
2022/04/30 04:05:25;;;;;;;12.57;7.10;;;5.10;99.90;;;;;;4859747;29;20054;-82
2022/04/30 04:07:50;;;;;;;15.25;6.95;;;5.10;99.90;;;;;;4876107;29;20060;-82
2022/04/30 04:10:16;;;;;;;11.35;6.97;;;5.10;99.90;;;;;;4875425;29;20113;-82
2022/04/30 04:12:42;;;;;;;12.18;6.60;;;5.10;99.90;;;;;;4876497;29;20049;-82
2022/04/30 04:17:53;;;;;;;11.73;6.53;;;5.20;99.90;;;;;;4857756;29;20052;-82
2022/04/30 04:20:24;;;;;;;12.85;7.70;;;5.20;99.90;;;;;;4859402;29;20052;-82
2022/04/30 04:22:51;;;;;;;16.13;6.97;;;5.20;99.90;;;;;;4858521;29;20530;-82
2022/04/30 04:28:01;;;;;;;14.25;6.47;;;5.30;99.90;;;;;;4858819;29;20166;-82
2022/04/30 04:30:29;;;;;;;14.18;7.63;;;5.30;99.90;;;;;;4857997;29;20057;-82
2022/04/30 04:32:56;;;;;;;13.15;7.72;;;5.40;99.90;;;;;;4873752;29;20041;-82
2022/04/30 04:35:23;;;;;;;14.10;7.25;;;5.40;99.90;;;;;;4858597;29;20093;-82
2022/04/30 04:37:49;;;;;;;13.15;7.25;;;5.50;99.90;;;;;;4874502;29;20060;-83
2022/04/30 04:40:16;;;;;;;14.10;7.97;;;5.50;99.90;;;;;;4873880;29;20060;-82
2022/04/30 04:42:42;;;;;;;14.02;7.07;;;5.60;99.90;;;;;;4859037;29;20053;-82
2022/04/30 04:45:09;;;;;;;16.13;7.70;;;5.60;99.90;;;;;;4873240;29;20886;-82
2022/04/30 04:47:36;;;;;;;16.73;7.50;;;5.70;99.90;;;;;;4875125;29;20049;-82
2022/04/30 04:50:03;;;;;;;18.42;6.65;;;5.70;99.90;;;;;;4875342;29;20057;-82
2022/04/30 04:52:29;;;;;;;12.10;6.80;;;5.80;99.90;;;;;;4873319;29;20061;-82
2022/04/30 04:54:55;;;;;;;13.93;7.35;;;5.80;99.90;;;;;;4873914;29;20111;-82
2022/04/30 04:57:20;;;;;;;17.40;7.40;;;5.90;99.90;;;;;;4875632;29;20124;-82
2022/04/30 04:59:46;;;;;;;14.75;7.10;;;6.00;99.90;;;;;;4856999;29;20049;-82
2022/04/30 05:02:12;;;;;;;18.67;7.57;;;6.40;99.90;;;;;;4857951;29;20056;-82
2022/04/30 05:04:37;;;;;;;12.98;7.05;;;6.10;99.90;;;;;;4875643;29;20053;-82
2022/04/30 05:07:03;;;;;;;16.20;6.95;;;6.20;99.90;;;;;;4874021;29;20053;-82
2022/04/30 05:09:31;;;;;;;14.00;7.55;;;6.20;99.90;;;;;;4875831;29;20052;-82
2022/04/30 05:12:01;;;;;;;19.48;7.18;;;6.30;99.90;;;;;;4857789;29;20049;-83
2022/04/30 05:14:28;;;;;;;11.65;7.63;;;6.40;99.90;;;;;;4858094;29;20569;-82
2022/04/30 05:16:54;;;;;;;14.18;7.18;;;6.50;99.90;;;;;;4874102;29;20089;-82
2022/04/30 05:19:19;;;;;;;17.60;8.70;;;6.60;99.90;;;;;;4858705;29;20480;-82
2022/04/30 05:21:45;;;;;;;16.02;7.38;;;6.70;99.90;;;;;;4857608;29;20109;-82
2022/04/30 05:24:11;;;;;;;16.75;7.85;;;6.80;99.90;;;;;;4858853;29;20103;-82
2022/04/30 05:26:36;;;;;;;10.23;7.03;;;7.10;99.90;;;;;;4858510;29;20406;-82
2022/04/30 05:29:02;;;;;;;14.10;7.60;;;7.00;99.90;;;;;;4857083;29;20045;-83
2022/04/30 05:31:27;;;;;;;13.07;7.50;;;7.20;99.90;;;;;;4857610;29;20087;-82
2022/04/30 05:33:53;;;;;;;12.57;7.28;;;7.20;99.90;;;;;;4857418;29;20059;-82
2022/04/30 05:36:19;;;;;;;14.13;7.03;;;7.30;99.90;;;;;;4857632;29;20084;-82
2022/04/30 05:38:44;;;;;;;14.90;7.05;;;7.40;99.90;;;;;;4866969;29;20107;-82
2022/04/30 05:41:10;;;;;;;14.00;7.03;;;7.50;99.90;;;;;;4892982;29;20470;-82
2022/04/30 05:43:36;;;;;;;11.02;6.57;;;7.60;99.90;;;;;;4876174;29;20523;-81
2022/04/30 05:46:02;;;;;;;14.02;6.47;;;7.70;99.90;;;;;;4875525;29;20523;-82
2022/04/30 05:48:27;;;;;;;12.93;6.30;;;7.70;99.90;;;;;;4875648;29;20041;-82
2022/04/30 05:50:54;;;;;;;14.75;7.10;;;7.90;99.90;;;;;;4860589;29;20060;-81
2022/04/30 05:53:21;;;;;;;15.55;7.15;;;8.00;99.90;;;;;;4893310;29;20048;-81
2022/04/30 05:55:46;;;;;;;13.63;6.75;;;8.10;99.90;;;;;;4859615;29;20052;-81
2022/04/30 05:58:12;;;;;;;10.50;5.70;;;8.20;99.90;;;;;;4876507;29;20049;-82
2022/04/30 06:00:38;;;;;;;12.77;6.00;;;8.30;99.90;;;;;;4876003;29;20078;-82
2022/04/30 06:03:03;;;;;;;12.18;5.07;;;8.40;99.90;;;;;;4859659;29;20087;-82
2022/04/30 06:05:29;;;;;;;11.80;5.50;;;8.50;99.90;;;;;;4892784;29;20060;-81
2022/04/30 06:07:55;;;;;;;11.27;5.13;;;8.60;99.90;;;;;;4876080;29;20052;-81
2022/04/30 06:10:20;;;;;;;9.15;5.28;;;8.60;99.90;;;;;;4874791;29;20056;-82
2022/04/30 06:12:46;;;;;;;12.07;5.72;;;8.70;99.90;;;;;;4874469;29;20136;-82
2022/04/30 06:15:12;;;;;;;10.73;5.47;;;8.80;99.90;;;;;;4857465;29;20091;-82
2022/04/30 06:17:37;;;;;;;10.80;5.03;;;8.90;99.90;;;;;;4856686;29;20076;-82
2022/04/30 06:20:03;;;;;;;13.13;5.43;;;9.00;99.90;;;;;;4873134;29;20111;-82
2022/04/30 06:22:30;;;;;;;15.63;5.47;;;9.10;99.90;;;;;;4875256;29;20070;-82
2022/04/30 06:24:56;;;;;;;13.00;4.82;;;9.10;99.90;;;;;;4860584;29;20053;-82
2022/04/30 06:27:22;;;;;;;14.75;5.30;;;9.30;99.90;;;;;;4878337;29;20076;-82
2022/04/30 06:29:51;;;;;;;13.65;5.25;;;9.40;99.90;;;;;;4861133;29;20056;-82
2022/04/30 06:32:17;;;;;;;10.43;5.00;;;9.50;99.90;;;;;;4844670;29;20501;-82
2022/04/30 06:34:42;;;;;;;11.15;4.72;;;9.60;99.90;;;;;;4860869;29;20052;-82
2022/04/30 06:37:08;;;;;;;10.77;4.72;;;9.70;99.90;;;;;;4860593;29;20096;-82
2022/04/30 06:39:34;;;;;;;8.50;4.25;;;9.70;99.90;;;;;;4860577;29;20045;-82
2022/04/30 06:41:59;;;;;;;12.05;4.47;;;9.80;99.90;;;;;;4860276;29;20076;-82
2022/04/30 06:44:25;;;;;;;10.57;4.45;;;9.90;99.90;;;;;;4861226;29;20105;-82
2022/04/30 06:46:51;;;;;;;8.68;4.10;;;10.00;99.90;;;;;;4859002;29;20152;-82
2022/04/30 06:49:16;;;;;;;13.77;4.72;;;10.00;99.90;;;;;;4861599;29;20061;-81
2022/04/30 06:51:42;;;;;;;11.52;4.90;;;10.00;99.90;;;;;;4860270;29;20509;-81
2022/04/30 06:57:08;;;;;;;9.82;4.25;;;9.90;99.90;;;;;;4871196;29;20056;-82
2022/04/30 06:59:40;;;;;;;12.20;4.65;;;9.90;99.90;;;;;;4884977;29;20048;-83
2022/04/30 07:02:12;;;;;;;12.30;5.53;;;9.90;99.90;;;;;;4887976;29;20628;-82
2022/04/30 07:04:39;;;;;;;8.82;4.15;;;9.90;99.90;;;;;;4881094;29;20075;-82
2022/04/30 07:07:05;;;;;;;14.43;5.03;;;10.00;99.90;;;;;;4883064;29;20641;-82
2022/04/30 07:09:32;;;;;;;12.88;4.88;;;10.00;99.90;;;;;;4885419;29;20044;-82
2022/04/30 07:11:59;;;;;;;9.80;4.80;;;10.10;99.90;;;;;;4883584;29;20481;-82
2022/04/30 07:14:25;;;;;;;11.73;4.97;;;10.30;99.90;;;;;;4899810;29;20052;-82
2022/04/30 07:16:50;;;;;;;12.70;4.57;;;10.30;99.90;;;;;;4883216;29;20155;-82
2022/04/30 07:19:16;;;;;;;15.70;4.57;;;10.30;99.90;;;;;;4886285;29;20044;-82
2022/04/30 07:21:42;;;;;;;11.65;5.32;;;10.30;99.90;;;;;;4873133;29;20074;-81
2022/04/30 07:24:07;;;;;;;7.90;4.10;;;10.30;99.90;;;;;;4908212;29;20417;-81
2022/04/30 07:26:33;;;;;;;11.00;4.35;;;10.30;99.90;;;;;;4885886;29;20100;-82
2022/04/30 07:28:59;;;;;;;16.85;4.13;;;10.30;99.90;;;;;;4863796;29;20044;-82
2022/04/30 07:31:24;;;;;;;12.25;4.13;;;10.30;99.90;;;;;;4889755;29;20042;-81
2022/04/30 07:33:51;;;;;;;12.85;4.65;;;10.40;99.90;;;;;;4869932;29;20044;-81
2022/04/30 07:36:17;;;;;;;9.02;3.72;;;10.40;99.90;;;;;;4911296;29;20052;-81
2022/04/30 07:38:43;;;;;;;8.52;3.88;;;10.40;99.90;;;;;;4876799;29;20515;-81
2022/04/30 07:41:09;;;;;;;9.57;4.13;;;10.40;99.90;;;;;;4878172;29;20045;-82
2022/04/30 07:43:35;;;;;;;15.95;4.80;;;10.40;99.90;;;;;;4888207;29;20055;-82
2022/04/30 07:46:00;;;;;;;9.82;4.85;;;10.60;99.90;;;;;;4879052;29;20053;-82
2022/04/30 07:48:26;;;;;;;11.70;4.35;;;10.30;99.90;;;;;;4882327;29;20187;-81
2022/04/30 07:50:57;;;;;;;9.73;4.30;;;10.30;99.90;;;;;;4887633;29;20091;-82
2022/04/30 07:53:23;;;;;;;10.48;4.65;;;10.20;99.90;;;;;;4890432;29;20404;-81
2022/04/30 07:55:49;;;;;;;12.18;4.75;;;10.20;99.90;;;;;;4884392;29;20511;-81
2022/04/30 07:58:14;;;;;;;11.48;4.95;;;10.20;99.90;;;;;;4863932;29;20048;-82
2022/04/30 08:00:40;;;;;;;8.93;4.55;;;10.20;99.90;;;;;;4900099;29;20119;-82
2022/04/30 08:03:06;;;;;;;9.82;5.25;;;10.30;99.90;;;;;;4890303;29;20484;-81
2022/04/30 08:05:32;;;;;;;9.75;4.95;;;10.30;99.90;;;;;;4890338;29;20092;-81
2022/04/30 08:07:58;;;;;;;10.70;4.90;;;10.10;99.90;;;;;;4879680;29;20143;-81
2022/04/30 08:10:24;;;;;;;16.02;5.38;;;10.20;99.90;;;;;;4873903;29;20097;-81
2022/04/30 08:12:53;;;;;;;10.90;4.88;;;10.10;99.90;;;;;;4883422;29;20059;-82
2022/04/30 08:15:21;;;;;;;10.77;5.82;;;10.30;99.90;;;;;;4865198;29;20055;-82
2022/04/30 08:17:47;;;;;;;9.68;5.13;;;10.40;99.90;;;;;;4908251;29;20121;-82
2022/04/30 08:20:13;;;;;;;8.38;4.50;;;10.40;99.90;;;;;;4891570;29;20492;-82
2022/04/30 08:22:39;;;;;;;10.18;4.78;;;10.60;99.90;;;;;;4897430;29;20054;-82
2022/04/30 08:25:06;;;;;;;7.78;4.10;;;10.60;99.90;;;;;;4882465;29;20044;-82
2022/04/30 08:27:33;;;;;;;10.15;4.47;;;10.70;99.90;;;;;;4875319;29;20542;-82
2022/04/30 08:29:59;;;;;;;14.70;5.20;;;10.80;99.90;;;;;;4906820;29;20052;-82
2022/04/30 08:32:25;;;;;;;11.13;4.05;;;10.90;99.90;;;;;;4895325;29;20262;-82
2022/04/30 08:34:52;;;;;;;7.68;4.72;;;11.10;99.90;;;;;;4869857;29;20055;-82
2022/04/30 08:37:17;;;;;;;10.60;4.43;;;11.30;99.90;;;;;;4878846;29;20053;-81
2022/04/30 08:39:44;;;;;;;13.25;4.00;;;11.40;99.90;;;;;;4865595;29;20037;-81
2022/04/30 08:42:10;;;;;;;9.75;4.72;;;11.50;99.90;;;;;;4895215;29;20052;-82
2022/04/30 08:44:38;;;;;;;12.60;5.18;;;11.70;99.90;;;;;;4877213;29;20135;-82
2022/04/30 08:47:04;;;;;;;8.45;4.25;;;11.80;99.90;;;;;;4875918;29;20509;-81
2022/04/30 08:49:33;;;;;;;13.32;5.35;;;11.90;99.90;;;;;;4877522;29;20044;-82
2022/04/30 08:51:59;;;;;;;9.57;4.43;;;12.00;99.90;;;;;;4892756;29;20118;-80
2022/04/30 08:54:25;;;;;;;9.43;4.45;;;12.00;99.90;;;;;;4877539;29;20052;-80
2022/04/30 08:56:54;;;;;;;11.23;4.70;;;12.10;99.90;;;;;;4877229;29;20127;-80
2022/04/30 08:59:19;;;;;;;9.25;4.35;;;12.10;99.90;;;;;;4876516;29;20524;-80
2022/04/30 09:01:50;;;;;;;10.82;5.05;;;12.10;99.90;;;;;;4876200;29;20060;-81
2022/04/30 09:04:17;;;;;;;11.93;4.55;;;12.00;99.90;;;;;;4876889;29;20045;-80
2022/04/30 09:06:46;;;;;;;9.30;4.35;;;11.80;99.90;;;;;;4876821;29;20462;-80
2022/04/30 09:09:19;;;;;;;10.00;4.38;;;11.70;99.90;;;;;;4876863;29;20044;-80
2022/04/30 09:11:45;;;;;;;8.95;4.57;;;11.60;99.90;;;;;;4876275;29;20073;-80
2022/04/30 09:14:11;;;;;;;12.55;4.65;;;11.40;99.90;;;;;;4860548;29;20555;-80
2022/04/30 09:16:37;;;;;;;9.85;4.28;;;11.30;99.90;;;;;;4893416;29;20053;-80
2022/04/30 09:19:04;;;;;;;11.85;4.80;;;11.10;99.90;;;;;;4861468;29;20468;-80
2022/04/30 09:21:29;;;;;;;16.02;4.88;;;10.90;99.90;;;;;;4876728;29;20091;-80
2022/04/30 09:24:03;;;;;;;13.77;5.57;;;10.80;99.90;;;;;;4861075;29;20084;-80
2022/04/30 09:26:39;;;;;;;8.30;4.70;;;10.70;99.90;;;;;;4876347;29;20553;-80
2022/04/30 09:29:19;;;;;;;14.80;5.40;;;10.60;99.90;;;;;;4876606;29;20511;-80
2022/04/30 09:31:50;;;;;;;10.65;5.75;;;10.50;99.90;;;;;;4860209;29;20048;-80
2022/04/30 09:39:43;;;;;;;12.77;5.75;;;10.40;99.90;;;;;;4876143;29;20489;-81
2022/04/30 09:42:09;;;;;;;17.77;6.55;;;10.40;99.90;;;;;;4892024;29;20053;-81
2022/04/30 09:44:37;;;;;;;12.45;5.60;;;10.30;99.90;;;;;;4876711;29;20485;-80
2022/04/30 09:47:06;;;;;;;15.55;5.70;;;10.30;99.90;;;;;;4892209;29;20056;-80
2022/04/30 09:55:02;;;;;;;13.25;5.15;;;10.30;99.90;;;;;;4875021;29;20103;-80
2022/04/30 09:57:30;;;;;;;10.85;4.72;;;10.30;99.90;;;;;;4892812;29;20477;-80
2022/04/30 09:59:57;;;;;;;11.75;4.70;;;10.30;99.90;;;;;;4891156;29;20052;-80
2022/04/30 10:02:25;;;;;;;9.40;4.22;;;10.30;99.90;;;;;;4856675;29;20501;-80
2022/04/30 10:04:52;;;;;;;10.23;4.35;;;10.30;99.90;;;;;;4857447;29;20045;-81
2022/04/30 10:07:21;;;;;;;10.35;5.18;;;10.30;99.90;;;;;;4857924;29;20072;-81
2022/04/30 10:10:16;;;;;;;11.10;4.30;;;10.40;99.90;;;;;;4856944;29;20045;-81
2022/04/30 10:13:01;;;;;;;20.60;5.15;;;10.40;99.90;;;;;;4857694;29;20049;-81
2022/04/30 10:15:37;;;;;;;10.30;4.70;;;10.40;99.90;;;;;;4856784;29;20144;-80
2022/04/30 10:18:07;;;;;;;10.65;4.50;;;10.40;99.90;;;;;;4857139;29;20086;-80
2022/04/30 10:20:34;;;;;;;8.75;4.43;;;10.40;99.90;;;;;;4857908;29;20640;-80
2022/04/30 10:23:01;;;;;;;8.25;4.75;;;10.50;99.90;;;;;;4856156;29;20528;-80
2022/04/30 10:25:35;;;;;;;7.68;3.95;;;10.50;99.90;;;;;;4874274;29;20052;-80
2022/04/30 10:28:16;;;;;;;11.10;4.68;;;10.50;99.90;;;;;;4857165;29;20549;-80
2022/04/30 10:30:43;;;;;;;9.90;4.60;;;10.60;99.90;;;;;;4855874;29;20194;-80
2022/04/30 10:33:09;;;;;;;15.93;4.57;;;10.70;99.90;;;;;;4857093;29;20049;-80
2022/04/30 10:35:39;;;;;;;21.63;4.03;;;10.60;99.90;;;;;;4856775;29;20149;-80
2022/04/30 10:38:11;;;;;;;8.38;3.08;;;10.60;99.90;;;;;;4856767;29;20080;-81
2022/04/30 10:40:40;;;;;;;7.85;3.70;;;10.70;99.90;;;;;;4857001;29;20052;-80
2022/04/30 10:43:31;;;;;;;9.40;3.97;;;10.70;99.90;;;;;;4857060;29;20104;-81
2022/04/30 10:45:58;;;;;;;14.35;5.07;;;10.80;99.90;;;;;;4872159;29;20041;-80
2022/04/30 10:48:24;;;;;;;6.13;2.95;;;10.80;99.90;;;;;;4857376;29;20053;-80
2022/04/30 10:51:05;;;;;;;7.70;3.45;;;10.90;99.90;;;;;;4866283;29;20077;-80
2022/04/30 10:53:32;;;;;;;7.00;3.70;;;10.90;99.90;;;;;;4875874;29;20142;-80
2022/04/30 10:55:59;;;;;;;14.00;3.65;;;10.80;99.90;;;;;;4874773;29;20060;-80
2022/04/30 10:58:25;;;;;;;10.65;4.00;;;10.90;99.90;;;;;;4884075;29;20056;-81
2022/04/30 11:00:52;;;;;;;9.32;3.85;;;10.90;99.90;;;;;;4884037;29;20056;-80
2022/04/30 11:03:18;;;;;;;11.00;3.90;;;11.00;99.90;;;;;;4903827;29;20056;-81
2022/04/30 11:05:48;;;;;;;10.32;3.83;;;11.10;99.90;;;;;;4879620;29;20036;-80
2022/04/30 11:08:14;;;;;;;5.68;3.50;;;11.20;99.90;;;;;;4886006;29;20053;-80
2022/04/30 11:10:50;;;;;;;10.88;4.20;;;11.10;99.90;;;;;;4872202;29;20044;-81
2022/04/30 11:13:16;;;;;;;8.93;4.05;;;11.10;99.90;;;;;;4862040;29;20045;-80
2022/04/30 11:15:41;;;;;;;8.00;3.55;;;11.30;99.90;;;;;;4880214;29;20060;-80
2022/04/30 11:18:07;;;;;;;9.95;4.10;;;11.20;99.90;;;;;;4884247;29;20056;-81
2022/04/30 11:20:33;;;;;;;9.23;3.97;;;11.40;99.90;;;;;;4895427;29;20143;-81
2022/04/30 11:23:00;;;;;;;13.85;3.70;;;11.30;99.90;;;;;;4888249;29;20052;-80
2022/04/30 11:25:35;;;;;;;7.25;3.50;;;11.30;99.90;;;;;;4888465;29;20082;-80
2022/04/30 11:28:04;;;;;;;8.52;3.72;;;11.50;99.90;;;;;;4885966;29;20044;-80
2022/04/30 11:30:34;;;;;;;8.02;3.78;;;11.50;99.90;;;;;;4862258;29;20114;-80
2022/04/30 11:32:59;;;;;;;6.00;3.78;;;11.60;99.90;;;;;;4880675;29;20059;-79
2022/04/30 11:35:25;;;;;;;6.95;4.15;;;11.70;99.90;;;;;;4897071;29;20040;-81
2022/04/30 11:37:50;;;;;;;8.10;3.90;;;11.80;99.90;;;;;;4887678;29;20051;-80
2022/04/30 11:40:16;;;;;;;12.55;4.50;;;11.90;99.90;;;;;;4875138;29;20135;-81
2022/04/30 11:42:42;;;;;;;7.70;3.97;;;11.90;99.90;;;;;;4887318;29;20044;-83
2022/04/30 11:45:08;;;;;;;7.63;3.95;;;12.00;99.90;;;;;;4875485;29;20604;-83
2022/04/30 11:47:34;;;;;;;7.30;3.90;;;12.00;99.90;;;;;;4887449;29;20127;-83
2022/04/30 11:50:05;;;;;;;7.25;3.88;;;12.00;99.90;;;;;;4898005;29;20156;-84
2022/04/30 11:52:31;;;;;;;7.13;3.90;;;12.00;99.90;;;;;;4887976;29;20044;-84
2022/04/30 11:54:59;;;;;;;11.55;3.85;;;12.20;99.90;;;;;;4887896;29;20059;-88
2022/04/30 11:57:25;;;;;;;8.13;3.75;;;12.30;99.90;;;;;;4887560;29;20476;-83
2022/04/30 11:59:51;;;;;;;7.13;3.47;;;12.40;99.90;;;;;;4893531;29;20060;-83
2022/04/30 12:02:16;;;;;;;10.73;3.80;;;12.70;99.90;;;;;;4887525;29;20104;-85
2022/04/30 12:04:42;;;;;;;9.25;3.53;;;12.50;99.90;;;;;;4878884;29;20397;-83
2022/04/30 12:07:11;;;;;;;7.38;3.33;;;12.60;99.90;;;;;;4865072;29;20049;-86
2022/04/30 12:09:37;;;;;;;8.82;3.35;;;12.70;99.90;;;;;;4844591;29;20055;-85
2022/04/30 12:12:16;;;;;;;7.25;3.53;;;12.70;99.90;;;;;;4843782;29;20049;-86
2022/04/30 12:14:44;;;;;;;8.50;3.20;;;12.80;99.90;;;;;;4859294;29;20087;-84
2022/04/30 12:17:10;;;;;;;8.32;3.05;;;12.80;99.90;;;;;;4862237;29;20453;-84
2022/04/30 12:25:07;;;;;;;7.15;3.00;;;12.90;99.90;;;;;;4877480;29;20049;-84
2022/04/30 12:27:33;;;;;;;8.50;3.50;;;12.90;99.90;;;;;;4862744;29;20060;-84
2022/04/30 12:30:04;;;;;;;6.13;3.08;;;13.30;99.90;;;;;;4876466;29;20068;-84
2022/04/30 12:32:32;;;;;;;10.98;3.88;;;12.90;99.90;;;;;;4877169;29;20080;-85
2022/04/30 12:34:59;;;;;;;12.27;3.65;;;12.90;99.90;;;;;;4861661;29;20481;-84
2022/04/30 12:37:30;;;;;;;9.48;3.50;;;13.00;99.90;;;;;;4877257;29;20052;-84
2022/04/30 12:39:56;;;;;;;8.00;3.92;;;13.10;99.90;;;;;;4861800;29;20059;-84
2022/04/30 12:42:22;;;;;;;7.47;3.95;;;13.10;99.90;;;;;;4877703;29;20160;-84
2022/04/30 12:44:48;;;;;;;6.05;3.28;;;13.20;99.90;;;;;;4876302;29;20080;-85
2022/04/30 12:47:14;;;;;;;9.48;3.47;;;13.10;99.90;;;;;;4876726;29;20123;-85
2022/04/30 12:49:39;;;;;;;8.57;3.53;;;13.20;99.90;;;;;;4875873;29;20048;-84
2022/04/30 12:52:05;;;;;;;13.77;3.40;;;13.10;99.90;;;;;;4872645;29;20063;-83
2022/04/30 12:54:31;;;;;;;10.32;3.40;;;13.10;99.90;;;;;;4858904;29;20060;-83
2022/04/30 12:56:57;;;;;;;6.22;2.78;;;13.00;99.90;;;;;;4857661;29;20048;-83
2022/04/30 12:59:22;;;;;;;6.45;2.83;;;12.90;99.90;;;;;;4873792;29;20049;-83
2022/04/30 13:01:48;;;;;;;7.20;3.30;;;12.90;99.90;;;;;;4842108;29;20140;-83
2022/04/30 13:04:13;;;;;;;7.28;3.70;;;12.90;99.90;;;;;;4843009;29;20048;-83
2022/04/30 13:06:40;;;;;;;9.48;3.95;;;13.00;99.90;;;;;;4858016;29;20116;-84
2022/04/30 13:14:35;;;;;;;8.32;3.75;;;12.90;99.90;;;;;;4857852;29;20045;-84
2022/04/30 13:17:01;;;;;;;7.50;3.33;;;12.90;99.90;;;;;;4857215;29;20056;-83
2022/04/30 13:19:26;;;;;;;12.95;4.47;;;12.80;99.90;;;;;;4857325;29;20041;-84
2022/04/30 13:21:52;;;;;;;12.55;3.80;;;12.90;99.90;;;;;;4857528;29;20068;-83
2022/04/30 13:24:18;;;;;;;14.20;4.63;;;12.70;99.90;;;;;;4842755;29;20040;-84
2022/04/30 13:26:45;;;;;;;7.80;3.17;;;12.70;99.90;;;;;;4857146;29;20099;-84
2022/04/30 13:29:11;;;;;;;6.47;3.13;;;12.70;99.90;;;;;;4858915;29;20957;-83
2022/04/30 13:31:38;;;;;;;10.80;3.50;;;12.80;99.90;;;;;;4856879;29;20059;-84